Terminal Aerodrome Forecast
Issued by NWS Newport/Morehead City, NC

Home | Current Version | Previous Version | Graphics & Text | Print | Product List | Glossary On
Versions: 1 2 3 4 5 6 7 8 9 10 11 12 13 14
000
FTUS42 KMHX 221700 RRA
TAFEWN
TAF
KEWN 221742Z 2218/2318 23010G20KT P6SM SCT050
     FM222300 23011G18KT P6SM VCSH BKN050
     FM230400 30006KT P6SM SKC
     FM231500 32012G20KT P6SM SKC=

USA.gov is the U.S. government's official web portal to all federal, state and local government web resources and services.